createdAt,value
2019-03-26T00:00:33.714Z,3.47
2019-03-26T00:03:03.049Z,1.63
2019-03-26T00:05:32.277Z,2.37
2019-03-26T00:08:01.130Z,0.67
2019-03-26T00:10:30.383Z,0.80
2019-03-26T00:12:59.029Z,0.90
2019-03-26T00:15:27.893Z,1.83
2019-03-26T00:17:56.546Z,1.10
2019-03-26T00:20:25.252Z,2.43
2019-03-26T00:22:54.276Z,0.70
2019-03-26T00:25:22.896Z,0.90
2019-03-26T00:27:51.795Z,2.03
2019-03-26T00:30:20.736Z,0.93
2019-03-26T00:32:49.449Z,5.93
2019-03-26T00:35:18.404Z,4.47
2019-03-26T00:37:47.028Z,1.57
2019-03-26T00:40:15.731Z,0.90
2019-03-26T00:42:44.656Z,2.47
2019-03-26T00:45:13.623Z,2.23
2019-03-26T00:47:42.655Z,2.37
2019-03-26T00:50:11.366Z,1.17
2019-03-26T00:52:40.070Z,1.20
2019-03-26T00:55:21.657Z,2.20
2019-03-26T00:57:39.993Z,1.03
2019-03-26T01:00:09.997Z,4.30
2019-03-26T01:02:38.717Z,1.10
2019-03-26T01:05:07.534Z,1.77
2019-03-26T01:07:36.164Z,1.93
2019-03-26T01:10:06.412Z,0.80
2019-03-26T01:12:35.228Z,0.80
2019-03-26T01:15:04.168Z,1.03
2019-03-26T01:17:32.868Z,2.70
2019-03-26T01:20:01.910Z,2.27
2019-03-26T01:22:30.865Z,5.00
2019-03-26T01:24:59.593Z,0.80
2019-03-26T01:27:28.462Z,1.03
2019-03-26T01:29:57.327Z,2.00
2019-03-26T01:32:26.211Z,0.60
2019-03-26T01:34:54.843Z,2.77
2019-03-26T01:37:23.717Z,0.87
2019-03-26T01:39:52.585Z,2.20
2019-03-26T01:42:21.551Z,0.63
2019-03-26T01:44:50.266Z,0.70
2019-03-26T01:47:19.230Z,0.97
2019-03-26T01:49:48.457Z,1.77
2019-03-26T01:52:17.431Z,0.87
2019-03-26T01:54:46.057Z,1.27
2019-03-26T01:57:15.202Z,1.23
2019-03-26T01:59:44.155Z,0.80
2019-03-26T02:02:12.860Z,0.87
2019-03-26T02:04:41.515Z,2.33
2019-03-26T02:07:10.398Z,2.73
2019-03-26T02:09:39.544Z,1.90
2019-03-26T02:12:08.263Z,8.70
2019-03-26T02:14:37.137Z,2.43
2019-03-26T02:17:06.064Z,4.00
2019-03-26T02:19:34.926Z,1.67
2019-03-26T02:22:03.893Z,5.10
2019-03-26T02:24:32.547Z,2.83
2019-03-26T02:27:01.661Z,1.97
2019-03-26T02:29:30.300Z,7.73
2019-03-26T02:31:58.991Z,2.77
2019-03-26T02:34:27.726Z,1.60
2019-03-26T02:36:56.634Z,2.90
2019-03-26T02:39:25.680Z,1.40
2019-03-26T02:41:54.321Z,0.90
2019-03-26T02:44:23.215Z,1.00
2019-03-26T02:46:52.155Z,1.17
2019-03-26T02:49:20.784Z,2.90
2019-03-26T02:51:49.665Z,2.30
2019-03-26T02:54:18.881Z,0.63
2019-03-26T02:56:47.864Z,4.33
2019-03-26T02:59:16.758Z,10.37
2019-03-26T03:01:45.725Z,3.47
2019-03-26T03:04:14.725Z,2.10
2019-03-26T03:06:44.146Z,5.73
2019-03-26T03:09:12.877Z,2.77
2019-03-26T03:11:41.850Z,2.20
2019-03-26T03:14:10.800Z,3.80
2019-03-26T03:16:39.431Z,2.40
2019-03-26T03:19:08.093Z,1.90
2019-03-26T03:21:36.795Z,0.80
2019-03-26T03:24:05.521Z,0.83
2019-03-26T03:26:34.230Z,6.30
2019-03-26T03:29:02.948Z,1.37
2019-03-26T03:31:31.613Z,3.70
2019-03-26T03:34:00.880Z,0.73
2019-03-26T03:36:29.907Z,0.60
2019-03-26T03:38:58.545Z,3.00
2019-03-26T03:41:27.527Z,3.03
2019-03-26T03:43:56.565Z,1.27
2019-03-26T03:46:25.608Z,0.80
2019-03-26T03:48:54.427Z,2.73
2019-03-26T03:51:24.374Z,0.80
2019-03-26T03:53:53.378Z,2.80
2019-03-26T03:56:23.583Z,1.70
2019-03-26T03:58:52.394Z,2.87
2019-03-26T04:01:21.467Z,1.07
2019-03-26T04:03:50.160Z,1.33
2019-03-26T04:06:18.800Z,1.63
2019-03-26T04:08:47.775Z,2.50
2019-03-26T04:11:16.693Z,3.77
2019-03-26T04:13:45.382Z,2.50
2019-03-26T04:16:14.057Z,1.83
2019-03-26T04:18:42.713Z,4.93
2019-03-26T04:21:11.763Z,1.13
2019-03-26T04:23:40.692Z,2.50
2019-03-26T04:26:09.602Z,0.60
2019-03-26T04:28:38.311Z,2.10
2019-03-26T04:31:07.550Z,1.80
2019-03-26T04:33:36.583Z,0.90
2019-03-26T04:36:05.352Z,1.00
2019-03-26T04:38:34.226Z,1.17
2019-03-26T04:41:02.943Z,3.23
2019-03-26T04:43:31.617Z,1.93
2019-03-26T04:46:00.611Z,1.07
2019-03-26T04:48:29.738Z,0.70
2019-03-26T04:50:58.701Z,1.90
2019-03-26T04:53:27.353Z,3.23
2019-03-26T04:55:56.004Z,4.10
2019-03-26T04:58:24.650Z,4.33
2019-03-26T05:00:53.274Z,7.10
2019-03-26T05:03:21.899Z,4.00
2019-03-26T05:05:50.775Z,3.27
2019-03-26T05:08:19.423Z,4.17
2019-03-26T05:10:49.289Z,5.17
2019-03-26T05:13:18.115Z,6.73
2019-03-26T05:15:46.747Z,5.87
2019-03-26T05:18:15.481Z,15.40
2019-03-26T05:20:44.365Z,34.00
2019-03-26T05:23:13.021Z,12.63
2019-03-26T05:25:41.664Z,15.20
2019-03-26T05:28:10.311Z,14.10
2019-03-26T05:30:38.955Z,19.50
2019-03-26T05:33:07.645Z,13.50
2019-03-26T05:35:36.286Z,21.30
2019-03-26T05:38:05.010Z,23.57
2019-03-26T05:40:33.806Z,10.07
2019-03-26T05:43:02.461Z,16.13
2019-03-26T05:45:31.360Z,18.47
2019-03-26T05:48:00.309Z,5.37
2019-03-26T05:50:29.433Z,6.87
2019-03-26T05:52:58.085Z,4.67
2019-03-26T06:04:58.868Z,5.47
2019-03-26T06:07:27.473Z,7.93
2019-03-26T06:09:56.112Z,7.77
2019-03-26T06:12:24.735Z,8.87
2019-03-26T06:14:53.637Z,3.23
2019-03-26T06:17:22.345Z,5.23
2019-03-26T06:19:51.021Z,5.50
2019-03-26T06:22:19.900Z,6.93
2019-03-26T06:24:48.787Z,5.70
2019-03-26T06:27:17.680Z,2.50
2019-03-26T06:29:46.308Z,5.80
2019-03-26T06:32:15.184Z,6.63
2019-03-26T06:34:43.813Z,4.00
2019-03-26T06:37:17.799Z,3.43
2019-03-26T06:39:43.106Z,3.57
2019-03-26T06:42:11.737Z,10.13
2019-03-26T06:44:40.700Z,4.40
2019-03-26T06:47:09.572Z,4.80
2019-03-26T06:49:38.210Z,2.40
2019-03-26T06:52:06.928Z,2.90
2019-03-26T06:54:35.557Z,1.10
2019-03-26T06:57:04.316Z,1.83
2019-03-26T06:59:33.197Z,1.83
2019-03-26T07:02:02.936Z,4.00
2019-03-26T07:04:31.574Z,2.67
2019-03-26T07:07:00.203Z,2.77
2019-03-26T07:09:28.848Z,5.30
2019-03-26T07:11:57.504Z,5.10
2019-03-26T07:14:26.106Z,1.63
2019-03-26T07:16:55.080Z,3.47
2019-03-26T07:19:23.719Z,2.83
2019-03-26T07:21:52.424Z,1.90
2019-03-26T07:24:21.384Z,3.03
2019-03-26T07:26:50.004Z,2.63
2019-03-26T07:29:18.962Z,4.03
2019-03-26T07:31:47.688Z,2.20
2019-03-26T07:34:16.329Z,3.90
2019-03-26T07:36:45.056Z,1.60
2019-03-26T07:39:13.698Z,2.40
2019-03-26T07:41:42.413Z,2.83
2019-03-26T07:44:11.032Z,5.70
2019-03-26T07:46:39.757Z,4.00
2019-03-26T07:49:09.554Z,1.17
2019-03-26T07:51:38.210Z,2.00
2019-03-26T07:54:06.841Z,2.20
2019-03-26T07:56:35.977Z,0.90
2019-03-26T07:59:04.970Z,2.67
2019-03-26T08:01:33.679Z,2.33
2019-03-26T08:04:02.518Z,1.63
2019-03-26T08:06:31.483Z,0.70
2019-03-26T08:09:00.196Z,3.80
2019-03-26T08:11:29.172Z,1.10
2019-03-26T08:13:57.826Z,2.63
2019-03-26T08:16:26.706Z,1.50
2019-03-26T08:18:56.034Z,1.43
2019-03-26T08:21:25.245Z,2.70
2019-03-26T08:23:53.888Z,1.23
2019-03-26T08:26:22.866Z,2.63
2019-03-26T08:28:51.845Z,1.00
2019-03-26T08:31:21.064Z,3.23
2019-03-26T08:33:49.784Z,1.30
2019-03-26T08:36:18.770Z,1.90
2019-03-26T08:38:47.670Z,2.40
2019-03-26T08:41:16.306Z,2.10
2019-03-26T08:43:45.031Z,1.60
2019-03-26T08:46:13.754Z,1.47
2019-03-26T08:48:42.388Z,1.20
2019-03-26T08:51:11.008Z,0.70
2019-03-26T08:53:39.649Z,1.60
2019-03-26T08:56:08.887Z,1.00
2019-03-26T08:58:38.026Z,2.03
2019-03-26T09:01:06.913Z,1.50
2019-03-26T09:03:35.634Z,0.93
2019-03-26T09:06:04.368Z,0.90
2019-03-26T09:08:33.266Z,0.60
2019-03-26T09:11:02.228Z,0.60
2019-03-26T09:13:30.860Z,1.03
2019-03-26T09:15:59.633Z,1.00
2019-03-26T09:18:28.265Z,1.23
2019-03-26T09:20:57.148Z,1.20
2019-03-26T09:23:26.377Z,1.37
2019-03-26T09:25:55.074Z,0.87
2019-03-26T09:28:24.304Z,0.93
2019-03-26T09:30:53.023Z,2.07
2019-03-26T09:33:21.680Z,4.10
2019-03-26T09:35:50.323Z,0.80
2019-03-26T09:38:19.237Z,0.60
2019-03-26T09:40:48.386Z,4.30
2019-03-26T09:43:17.307Z,0.60
2019-03-26T09:45:46.291Z,0.93
2019-03-26T09:48:15.181Z,0.77
2019-03-26T09:50:43.809Z,0.50
2019-03-26T09:53:12.685Z,0.80
2019-03-26T09:55:41.555Z,1.03
2019-03-26T09:58:10.556Z,0.80
2019-03-26T10:00:39.334Z,0.83
2019-03-26T10:03:08.389Z,0.60
2019-03-26T10:05:37.384Z,0.50
2019-03-26T10:08:06.363Z,0.80
2019-03-26T10:10:35.073Z,2.40
2019-03-26T10:13:04.065Z,0.83
2019-03-26T10:15:32.694Z,0.43
2019-03-26T10:18:01.425Z,0.67
2019-03-26T10:20:30.402Z,1.30
2019-03-26T10:22:59.200Z,0.50
2019-03-26T10:25:28.277Z,1.13
2019-03-26T10:27:56.982Z,1.03
2019-03-26T10:30:32.179Z,1.30
2019-03-26T10:33:00.915Z,0.60
2019-03-26T10:35:29.813Z,1.10
2019-03-26T10:37:58.452Z,0.43
2019-03-26T10:40:30.779Z,0.67
2019-03-26T10:42:59.731Z,0.43
2019-03-26T10:45:28.784Z,0.33
2019-03-26T10:47:57.777Z,0.83
2019-03-26T10:50:26.521Z,0.50
2019-03-26T10:52:55.269Z,0.83
2019-03-26T10:55:23.990Z,0.60
2019-03-26T10:57:52.629Z,0.70
2019-03-26T11:00:22.623Z,0.97
2019-03-26T11:02:54.003Z,0.50
2019-03-26T11:05:21.973Z,0.73
2019-03-26T11:07:50.920Z,0.50
2019-03-26T11:10:19.886Z,0.70
2019-03-26T11:12:48.865Z,0.50
2019-03-26T11:15:17.847Z,0.57
2019-03-26T11:17:46.588Z,1.33
2019-03-26T11:20:15.319Z,1.20
2019-03-26T11:22:44.309Z,0.60
2019-03-26T11:25:13.291Z,0.60
2019-03-26T11:27:42.021Z,0.50
2019-03-26T11:30:11.731Z,0.50
2019-03-26T11:32:40.600Z,1.73
2019-03-26T11:35:09.500Z,0.83
2019-03-26T11:37:38.185Z,0.70
2019-03-26T11:40:07.417Z,0.50
2019-03-26T11:42:36.060Z,0.50
2019-03-26T11:45:05.748Z,0.50
2019-03-26T11:47:34.705Z,0.50
2019-03-26T11:50:04.868Z,1.00
2019-03-26T11:52:33.792Z,0.40
2019-03-26T11:55:02.768Z,0.50
2019-03-26T11:57:31.653Z,0.50
2019-03-26T12:00:00.361Z,0.63
2019-03-26T12:02:29.443Z,0.90
2019-03-26T12:04:58.480Z,0.50
2019-03-26T12:07:27.437Z,0.60
2019-03-26T12:09:56.077Z,1.70
2019-03-26T12:12:25.262Z,0.50
2019-03-26T12:14:54.282Z,0.60
2019-03-26T12:17:23.276Z,0.60
2019-03-26T12:19:51.942Z,0.70
2019-03-26T12:22:20.652Z,0.70
2019-03-26T12:24:49.560Z,0.50
2019-03-26T12:27:18.295Z,1.13
2019-03-26T12:32:57.093Z,0.40
2019-03-26T12:35:28.875Z,1.10
2019-03-26T12:37:57.650Z,0.43
2019-03-26T12:40:26.355Z,0.60
2019-03-26T12:42:55.016Z,0.97
2019-03-26T12:45:23.952Z,0.50
2019-03-26T12:47:52.576Z,1.60
2019-03-26T12:50:21.453Z,0.70
2019-03-26T12:52:50.162Z,1.00
2019-03-26T12:55:18.806Z,1.40
2019-03-26T12:57:47.437Z,1.63
2019-03-26T13:00:16.264Z,1.63
2019-03-26T13:02:44.881Z,1.70
2019-03-26T13:05:13.673Z,1.63
2019-03-26T13:07:42.562Z,2.40
2019-03-26T13:10:13.731Z,2.70
2019-03-26T13:12:42.260Z,8.23
2019-03-26T13:15:10.975Z,4.40
2019-03-26T13:17:39.607Z,7.20
2019-03-26T13:20:08.329Z,3.70
2019-03-26T13:22:37.210Z,6.57
2019-03-26T13:25:06.214Z,6.67
2019-03-26T13:27:34.843Z,6.63
2019-03-26T13:30:03.852Z,8.30
2019-03-26T13:32:32.565Z,8.23
2019-03-26T13:35:01.542Z,12.47
2019-03-26T13:37:30.425Z,9.17
2019-03-26T13:39:59.136Z,13.33
2019-03-26T13:42:28.043Z,10.53
2019-03-26T13:44:56.924Z,12.80
2019-03-26T13:47:25.805Z,13.00
2019-03-26T13:49:54.439Z,14.03
2019-03-26T13:52:23.332Z,16.87
2019-03-26T13:54:51.994Z,14.40
2019-03-26T13:57:20.619Z,15.37
2019-03-26T13:59:49.284Z,18.07
2019-03-26T14:02:18.510Z,17.83
2019-03-26T14:04:47.207Z,12.57
2019-03-26T14:07:15.913Z,14.70
2019-03-26T14:09:44.643Z,13.30
2019-03-26T14:12:13.349Z,16.63
2019-03-26T14:14:42.322Z,14.13
2019-03-26T14:17:11.222Z,15.70
2019-03-26T14:19:58.180Z,15.73
2019-03-26T14:22:27.055Z,17.43
2019-03-26T14:24:55.823Z,16.30
2019-03-26T14:27:24.440Z,18.63
2019-03-26T14:29:53.115Z,28.80
2019-03-26T14:32:21.935Z,31.33
2019-03-26T14:34:51.867Z,38.83
2019-03-26T14:37:20.910Z,41.33
2019-03-26T14:39:49.877Z,39.30
2019-03-26T14:42:18.597Z,34.57
2019-03-26T14:44:49.918Z,35.70
2019-03-26T14:47:17.707Z,34.23
2019-03-26T14:49:46.348Z,35.40
2019-03-26T14:52:15.000Z,36.27
2019-03-26T14:54:43.997Z,32.83
2019-03-26T14:57:12.724Z,33.90
2019-03-26T14:59:41.968Z,31.83
2019-03-26T15:02:10.625Z,36.67
2019-03-26T15:04:39.592Z,29.40
2019-03-26T15:07:08.509Z,30.57
2019-03-26T15:09:37.898Z,30.37
2019-03-26T15:12:06.809Z,31.53
2019-03-26T15:14:35.746Z,28.37
2019-03-26T15:17:04.401Z,31.53
2019-03-26T15:19:33.145Z,32.37
2019-03-26T15:22:01.823Z,24.83
2019-03-26T15:24:30.468Z,28.63
2019-03-26T15:26:59.368Z,26.77
2019-03-26T15:29:28.556Z,29.87
2019-03-26T15:31:57.282Z,26.33
2019-03-26T15:34:35.668Z,24.67
2019-03-26T15:36:56.946Z,24.10
2019-03-26T15:39:25.587Z,28.20
2019-03-26T15:41:54.304Z,26.50
2019-03-26T15:44:23.013Z,23.87
2019-03-26T15:46:51.666Z,22.57
2019-03-26T15:49:20.545Z,23.07
2019-03-26T15:51:49.250Z,20.80
2019-03-26T15:54:18.504Z,26.03
2019-03-26T15:56:47.184Z,21.83
2019-03-26T15:59:16.137Z,23.90
2019-03-26T16:01:44.857Z,22.13
2019-03-26T16:04:14.088Z,20.33
2019-03-26T16:06:42.825Z,23.80
2019-03-26T16:09:27.931Z,21.20
2019-03-26T16:11:56.602Z,22.97
2019-03-26T16:14:28.034Z,21.37
2019-03-26T16:16:55.732Z,19.20
2019-03-26T16:19:32.224Z,21.07
2019-03-26T16:21:54.906Z,22.90
2019-03-26T16:24:23.565Z,21.30
2019-03-26T16:26:52.238Z,17.23
2019-03-26T16:29:20.963Z,15.33
2019-03-26T16:31:49.621Z,16.33
2019-03-26T16:34:18.359Z,17.70
2019-03-26T16:36:58.848Z,16.03
2019-03-26T16:39:17.456Z,16.57
2019-03-26T16:41:49.360Z,16.03
2019-03-26T16:44:16.861Z,25.37
2019-03-26T16:46:45.841Z,14.63
2019-03-26T16:52:38.159Z,14.83
2019-03-26T16:55:07.227Z,23.90
2019-03-26T16:57:35.943Z,13.53
2019-03-26T17:00:05.115Z,15.60
2019-03-26T17:02:34.328Z,13.70
2019-03-26T17:05:03.285Z,13.10
2019-03-26T17:07:31.918Z,17.33
2019-03-26T17:10:00.542Z,10.53
2019-03-26T17:12:29.192Z,16.77
2019-03-26T17:14:58.068Z,13.20
2019-03-26T17:17:26.933Z,13.23
2019-03-26T17:19:55.634Z,13.63
2019-03-26T17:22:24.273Z,13.40
2019-03-26T17:24:53.156Z,11.37
2019-03-26T17:27:21.798Z,11.00
2019-03-26T17:29:50.795Z,16.70
2019-03-26T17:32:19.709Z,18.30
2019-03-26T17:34:48.335Z,11.33
2019-03-26T17:37:17.321Z,12.50
2019-03-26T17:39:45.984Z,10.33
2019-03-26T17:42:17.545Z,9.20
2019-03-26T17:44:45.621Z,8.90
2019-03-26T17:47:14.761Z,9.87
2019-03-26T17:49:43.969Z,11.80
2019-03-26T17:52:12.765Z,8.23
2019-03-26T17:54:41.678Z,18.10
2019-03-26T17:57:10.365Z,15.43
2019-03-26T17:59:39.075Z,11.17
2019-03-26T18:02:07.864Z,9.00
2019-03-26T18:04:36.780Z,10.07
2019-03-26T18:07:05.720Z,8.03
2019-03-26T18:09:34.837Z,8.13
2019-03-26T18:12:03.554Z,8.63
2019-03-26T18:14:32.500Z,10.70
2019-03-26T18:17:01.209Z,15.43
2019-03-26T18:19:29.866Z,10.33
2019-03-26T18:21:58.506Z,13.67
2019-03-26T18:24:27.221Z,10.90
2019-03-26T18:26:56.184Z,11.63
2019-03-26T18:29:24.896Z,13.97
2019-03-26T18:31:53.516Z,9.40
2019-03-26T18:34:22.494Z,8.27
2019-03-26T18:36:51.129Z,6.53
2019-03-26T18:39:20.265Z,9.63
2019-03-26T18:41:48.985Z,10.67
2019-03-26T18:44:17.625Z,9.67
2019-03-26T18:46:46.735Z,8.07
2019-03-26T18:49:15.440Z,15.40
2019-03-26T18:51:44.059Z,7.80
2019-03-26T18:54:12.721Z,6.30
2019-03-26T18:56:41.351Z,9.90
2019-03-26T18:59:09.993Z,7.10
2019-03-26T19:02:33.168Z,11.57
2019-03-26T19:05:02.169Z,6.20
2019-03-26T19:07:30.871Z,7.87
2019-03-26T19:09:59.764Z,6.10
2019-03-26T19:12:28.972Z,8.50
2019-03-26T19:14:57.713Z,9.07
2019-03-26T19:17:26.759Z,7.00
2019-03-26T19:19:58.285Z,11.07
2019-03-26T19:22:26.198Z,8.13
2019-03-26T19:24:55.096Z,7.63
2019-03-26T19:27:23.723Z,7.63
2019-03-26T19:29:52.609Z,9.37
2019-03-26T19:32:21.236Z,14.67
2019-03-26T19:34:49.961Z,15.43
2019-03-26T19:37:18.597Z,21.50
2019-03-26T19:39:47.227Z,9.00
2019-03-26T19:42:15.944Z,26.60
2019-03-26T19:44:44.622Z,25.50
2019-03-26T19:47:13.529Z,24.83
2019-03-26T19:49:42.184Z,24.80
2019-03-26T19:52:10.835Z,38.37
2019-03-26T19:54:39.491Z,16.40
2019-03-26T19:57:08.129Z,30.43
2019-03-26T19:59:37.042Z,37.00
2019-03-26T20:02:05.750Z,15.30
2019-03-26T20:04:34.504Z,21.03
2019-03-26T20:10:25.921Z,29.30
2019-03-26T20:12:54.912Z,17.83
2019-03-26T20:15:24.412Z,23.90
2019-03-26T20:17:53.295Z,20.43
2019-03-26T20:20:22.134Z,13.67
2019-03-26T20:22:50.865Z,12.33
2019-03-26T20:25:19.591Z,12.87
2019-03-26T20:27:48.319Z,16.83
2019-03-26T20:30:17.258Z,18.47
2019-03-26T20:32:45.891Z,11.60
2019-03-26T20:35:14.639Z,13.73
2019-03-26T20:37:43.631Z,16.10
2019-03-26T20:40:12.629Z,11.10
2019-03-26T20:42:41.272Z,9.70
2019-03-26T20:45:10.592Z,9.33
2019-03-26T20:47:39.591Z,8.33
2019-03-26T20:50:08.763Z,7.63
2019-03-26T20:52:37.491Z,12.90
2019-03-26T20:55:07.938Z,9.17
2019-03-26T20:57:36.708Z,14.60
2019-03-26T21:00:06.024Z,9.57
2019-03-26T21:02:34.764Z,9.40
2019-03-26T21:05:03.424Z,11.33
2019-03-26T21:07:32.397Z,10.97
2019-03-26T21:10:01.135Z,13.87
2019-03-26T21:12:30.471Z,8.53
2019-03-26T21:14:59.267Z,6.67
2019-03-26T21:17:28.111Z,4.80
2019-03-26T21:19:56.835Z,7.13
2019-03-26T21:22:25.541Z,4.73
2019-03-26T21:24:54.452Z,5.20
2019-03-26T21:27:23.190Z,10.70
2019-03-26T21:29:52.111Z,7.37
2019-03-26T21:35:31.614Z,6.17
2019-03-26T21:38:00.272Z,4.60
2019-03-26T21:40:28.906Z,4.93
2019-03-26T21:42:57.616Z,4.17
2019-03-26T21:45:32.983Z,5.20
2019-03-26T21:48:01.965Z,4.97
2019-03-26T21:50:33.432Z,7.47
2019-03-26T21:53:03.067Z,5.97
2019-03-26T21:55:31.700Z,4.97
2019-03-26T21:58:00.356Z,10.60
2019-03-26T22:00:28.993Z,6.73
2019-03-26T22:02:57.629Z,3.53
2019-03-26T22:05:26.349Z,2.67
2019-03-26T22:07:55.055Z,3.57
2019-03-26T22:10:23.724Z,5.13
2019-03-26T22:12:52.616Z,7.80
2019-03-26T22:15:21.584Z,5.50
2019-03-26T22:17:50.538Z,4.90
2019-03-26T22:20:19.420Z,4.80
2019-03-26T22:22:48.158Z,10.50
2019-03-26T22:25:16.924Z,8.20
2019-03-26T22:27:45.585Z,4.77
2019-03-26T22:30:14.810Z,6.30
2019-03-26T22:32:43.983Z,3.37
2019-03-26T22:35:12.794Z,6.27
2019-03-26T22:37:41.672Z,5.83
2019-03-26T22:40:10.845Z,4.80
2019-03-26T22:42:39.492Z,4.20
2019-03-26T22:45:08.561Z,8.20
2019-03-26T22:47:37.632Z,6.73
2019-03-26T22:50:07.021Z,5.57
2019-03-26T22:52:35.915Z,4.70
2019-03-26T22:55:04.970Z,5.10
2019-03-26T22:57:33.850Z,4.77
2019-03-26T23:00:02.667Z,10.57
2019-03-26T23:02:31.371Z,3.20
2019-03-26T23:05:00.375Z,5.00
2019-03-26T23:07:29.402Z,6.10
2019-03-26T23:09:58.292Z,4.93
2019-03-26T23:12:26.946Z,4.00
2019-03-26T23:14:55.692Z,3.00
2019-03-26T23:17:24.391Z,5.00
2019-03-26T23:19:53.287Z,5.30
2019-03-26T23:22:21.991Z,6.30
2019-03-26T23:24:50.642Z,4.57
2019-03-26T23:27:19.298Z,3.70
2019-03-26T23:29:47.932Z,3.60
2019-03-26T23:32:16.842Z,3.50
2019-03-26T23:34:45.862Z,5.17
2019-03-26T23:37:14.493Z,4.93
2019-03-26T23:39:43.425Z,3.50
2019-03-26T23:42:12.325Z,3.83
2019-03-26T23:44:40.964Z,3.13
2019-03-26T23:47:09.999Z,1.60
2019-03-26T23:49:38.628Z,7.97
2019-03-26T23:52:07.861Z,4.20
2019-03-26T23:54:36.530Z,2.83
2019-03-26T23:57:05.155Z,2.70
2019-03-26T23:59:34.153Z,3.30
